Time;durP1;ratioP1;P1;durP2;ratioP2;P2;SDS_P1;SDS_P2;PMS_P1;PMS_P2;Temp;Humidity;BMP_temperature;BMP_pressure;BME280_temperature;BME280_humidity;BME280_pressure;Samples;Min_cycle;Max_cycle;Signal;HPM_P1;HPM_P2
2021/11/11 00:00:39;;;;;;;21.9;14.05;;;;;;;0.83;74.55371;95690.34;;;;
2021/11/11 00:01:42;;;;;;;21.9;14.05;;;;;;;0.83;74.55371;95690.34;;;;
2021/11/11 00:02:43;;;;;;;21.9;14.05;;;;;;;0.83;74.55371;95690.34;;;;
2021/11/11 00:03:44;;;;;;;21.9;14.05;;;;;;;0.83;74.55371;95690.34;;;;
2021/11/11 00:04:44;;;;;;;21.9;14.05;;;;;;;0.83;74.55371;95690.34;;;;
2021/11/11 00:05:45;;;;;;;22.55;13.4;;;;;;;0.89;74.62793;95669.23;;;;
2021/11/11 00:06:46;;;;;;;22.55;13.4;;;;;;;0.89;74.62793;95669.23;;;;
2021/11/11 00:07:47;;;;;;;22.55;13.4;;;;;;;0.89;74.62793;95669.23;;;;
2021/11/11 00:08:49;;;;;;;22.55;13.4;;;;;;;0.89;74.62793;95669.23;;;;
2021/11/11 00:09:50;;;;;;;22.55;13.4;;;;;;;0.89;74.62793;95669.23;;;;
2021/11/11 00:10:51;;;;;;;22.55;13.4;;;;;;;0.89;74.62793;95669.23;;;;
2021/11/11 00:11:52;;;;;;;22.55;13.4;;;;;;;0.89;74.62793;95669.23;;;;
2021/11/11 00:12:52;;;;;;;22.55;13.4;;;;;;;0.89;74.62793;95669.23;;;;
2021/11/11 00:13:54;;;;;;;22.55;13.4;;;;;;;0.89;74.62793;95669.23;;;;
2021/11/11 00:14:55;;;;;;;22.55;13.4;;;;;;;0.89;74.62793;95669.23;;;;
2021/11/11 00:15:56;;;;;;;20.75;13.3;;;;;;;0.93;74.55078;95660.85;;;;
2021/11/11 00:16:56;;;;;;;20.75;13.3;;;;;;;0.93;74.55078;95660.85;;;;
2021/11/11 00:17:57;;;;;;;20.75;13.3;;;;;;;0.93;74.55078;95660.85;;;;
2021/11/11 00:18:58;;;;;;;20.75;13.3;;;;;;;0.93;74.55078;95660.85;;;;
2021/11/11 00:19:59;;;;;;;20.75;13.3;;;;;;;0.93;74.55078;95660.85;;;;
2021/11/11 00:20:59;;;;;;;20.75;13.3;;;;;;;0.93;74.55078;95660.85;;;;
2021/11/11 00:22:00;;;;;;;20.75;13.3;;;;;;;0.93;74.55078;95660.85;;;;
2021/11/11 00:23:01;;;;;;;20.75;13.3;;;;;;;0.93;74.55078;95660.85;;;;
2021/11/11 00:24:02;;;;;;;20.75;13.3;;;;;;;0.93;74.55078;95660.85;;;;
2021/11/11 00:25:03;;;;;;;20.75;13.3;;;;;;;0.93;74.55078;95660.85;;;;
2021/11/11 00:26:05;;;;;;;20.75;13.3;;;;;;;0.93;74.55078;95660.85;;;;
2021/11/11 00:27:06;;;;;;;32.85;16.75;;;;;;;0.95;74.63965;95661.93;;;;
2021/11/11 00:28:06;;;;;;;32.85;16.75;;;;;;;0.95;74.63965;95661.93;;;;
2021/11/11 00:29:07;;;;;;;32.85;16.75;;;;;;;0.95;74.63965;95661.93;;;;
2021/11/11 00:30:08;;;;;;;32.85;16.75;;;;;;;0.95;74.63965;95661.93;;;;
2021/11/11 00:31:10;;;;;;;32.85;16.75;;;;;;;0.95;74.63965;95661.93;;;;
2021/11/11 00:32:11;;;;;;;32.85;16.75;;;;;;;0.95;74.63965;95661.93;;;;
2021/11/11 00:33:12;;;;;;;32.85;16.75;;;;;;;0.95;74.63965;95661.93;;;;
2021/11/11 00:34:13;;;;;;;32.85;16.75;;;;;;;0.95;74.63965;95661.93;;;;
2021/11/11 00:35:13;;;;;;;32.85;16.75;;;;;;;0.95;74.63965;95661.93;;;;
2021/11/11 00:36:17;;;;;;;32.85;16.75;;;;;;;0.95;74.63965;95661.93;;;;
2021/11/11 00:37:17;;;;;;;32.85;16.75;;;;;;;0.95;74.63965;95661.93;;;;
2021/11/11 00:38:18;;;;;;;32.85;16.75;;;;;;;0.95;74.63965;95661.93;;;;
2021/11/11 00:39:19;;;;;;;32.85;16.75;;;;;;;0.95;74.63965;95661.93;;;;
2021/11/11 00:40:19;;;;;;;32.85;16.75;;;;;;;0.95;74.63965;95661.93;;;;
2021/11/11 00:41:20;;;;;;;32.85;16.75;;;;;;;0.95;74.63965;95661.93;;;;
2021/11/11 00:42:20;;;;;;;32.85;16.75;;;;;;;0.95;74.63965;95661.93;;;;
2021/11/11 00:43:21;;;;;;;32.85;16.75;;;;;;;0.95;74.63965;95661.93;;;;
2021/11/11 00:44:22;;;;;;;32.85;16.75;;;;;;;0.95;74.63965;95661.93;;;;
2021/11/11 00:45:23;;;;;;;32.85;16.75;;;;;;;0.95;74.63965;95661.93;;;;
2021/11/11 00:46:23;;;;;;;32.85;16.75;;;;;;;0.95;74.63965;95661.93;;;;
2021/11/11 00:47:24;;;;;;;32.85;16.75;;;;;;;0.95;74.63965;95661.93;;;;
2021/11/11 00:48:25;;;;;;;23.5;13.95;;;;;;;0.88;74.75195;95659.19;;;;
2021/11/11 00:49:26;;;;;;;23.5;13.95;;;;;;;0.88;74.75195;95659.19;;;;
2021/11/11 00:50:26;;;;;;;23.5;13.95;;;;;;;0.88;74.75195;95659.19;;;;
2021/11/11 00:51:29;;;;;;;23.5;13.95;;;;;;;0.88;74.75195;95659.19;;;;
2021/11/11 00:52:31;;;;;;;23.5;13.95;;;;;;;0.88;74.75195;95659.19;;;;
2021/11/11 00:53:32;;;;;;;23.5;13.95;;;;;;;0.88;74.75195;95659.19;;;;
2021/11/11 00:54:32;;;;;;;23.5;13.95;;;;;;;0.88;74.75195;95659.19;;;;
2021/11/11 00:55:33;;;;;;;23.5;13.95;;;;;;;0.88;74.75195;95659.19;;;;
2021/11/11 00:56:34;;;;;;;23.5;13.95;;;;;;;0.88;74.75195;95659.19;;;;
2021/11/11 00:57:34;;;;;;;23.5;13.95;;;;;;;0.88;74.75195;95659.19;;;;
2021/11/11 00:58:35;;;;;;;20.35;13.5;;;;;;;0.74;74.84375;95659.35;;;;
2021/11/11 00:59:36;;;;;;;20.35;13.5;;;;;;;0.74;74.84375;95659.35;;;;
2021/11/11 01:00:38;;;;;;;20.35;13.5;;;;;;;0.74;74.84375;95659.35;;;;
2021/11/11 01:01:39;;;;;;;20.35;13.5;;;;;;;0.74;74.84375;95659.35;;;;
2021/11/11 01:02:40;;;;;;;20.35;13.5;;;;;;;0.74;74.84375;95659.35;;;;
2021/11/11 01:03:42;;;;;;;20.35;13.5;;;;;;;0.74;74.84375;95659.35;;;;
2021/11/11 01:04:42;;;;;;;20.35;13.5;;;;;;;0.74;74.84375;95659.35;;;;
2021/11/11 01:05:43;;;;;;;20.35;13.5;;;;;;;0.74;74.84375;95659.35;;;;
2021/11/11 01:06:44;;;;;;;20.35;13.5;;;;;;;0.74;74.84375;95659.35;;;;
2021/11/11 01:07:45;;;;;;;20.35;13.5;;;;;;;0.74;74.84375;95659.35;;;;
2021/11/11 01:08:46;;;;;;;20.35;13.5;;;;;;;0.74;74.84375;95659.35;;;;
2021/11/11 01:09:47;;;;;;;20.6;13.65;;;;;;;0.59;74.94141;95652.64;;;;
2021/11/11 01:10:48;;;;;;;20.6;13.65;;;;;;;0.59;74.94141;95652.64;;;;
2021/11/11 01:11:49;;;;;;;20.6;13.65;;;;;;;0.59;74.94141;95652.64;;;;
2021/11/11 01:12:49;;;;;;;20.6;13.65;;;;;;;0.59;74.94141;95652.64;;;;
2021/11/11 01:13:51;;;;;;;20.6;13.65;;;;;;;0.59;74.94141;95652.64;;;;
2021/11/11 01:14:52;;;;;;;20.6;13.65;;;;;;;0.59;74.94141;95652.64;;;;
2021/11/11 01:15:53;;;;;;;20.6;13.65;;;;;;;0.59;74.94141;95652.64;;;;
2021/11/11 01:16:54;;;;;;;20.6;13.65;;;;;;;0.59;74.94141;95652.64;;;;
2021/11/11 01:17:54;;;;;;;20.6;13.65;;;;;;;0.59;74.94141;95652.64;;;;
2021/11/11 01:18:55;;;;;;;20.6;13.65;;;;;;;0.59;74.94141;95652.64;;;;
2021/11/11 01:19:57;;;;;;;19.7;13;;;;;;;0.54;74.99512;95662.92;;;;
2021/11/11 01:20:57;;;;;;;19.7;13;;;;;;;0.54;74.99512;95662.92;;;;
2021/11/11 01:21:58;;;;;;;19.7;13;;;;;;;0.54;74.99512;95662.92;;;;
2021/11/11 01:23:00;;;;;;;19.7;13;;;;;;;0.54;74.99512;95662.92;;;;
2021/11/11 01:24:00;;;;;;;19.7;13;;;;;;;0.54;74.99512;95662.92;;;;
2021/11/11 01:25:01;;;;;;;19.7;13;;;;;;;0.54;74.99512;95662.92;;;;
2021/11/11 01:26:03;;;;;;;19.7;13;;;;;;;0.54;74.99512;95662.92;;;;
2021/11/11 01:27:04;;;;;;;19.7;13;;;;;;;0.54;74.99512;95662.92;;;;
2021/11/11 01:28:05;;;;;;;19.7;13;;;;;;;0.54;74.99512;95662.92;;;;
2021/11/11 01:29:08;;;;;;;19.7;13;;;;;;;0.54;74.99512;95662.92;;;;
2021/11/11 01:30:08;;;;;;;19.7;13;;;;;;;0.54;74.99512;95662.92;;;;
2021/11/11 01:31:10;;;;;;;23.3;13.5;;;;;;;0.46;74.87598;95669.14;;;;
2021/11/11 01:32:10;;;;;;;23.3;13.5;;;;;;;0.46;74.87598;95669.14;;;;
2021/11/11 01:33:11;;;;;;;23.3;13.5;;;;;;;0.46;74.87598;95669.14;;;;
2021/11/11 01:34:13;;;;;;;23.3;13.5;;;;;;;0.46;74.87598;95669.14;;;;
2021/11/11 01:35:15;;;;;;;23.3;13.5;;;;;;;0.46;74.87598;95669.14;;;;
2021/11/11 01:36:16;;;;;;;23.3;13.5;;;;;;;0.46;74.87598;95669.14;;;;
2021/11/11 01:37:16;;;;;;;23.3;13.5;;;;;;;0.46;74.87598;95669.14;;;;
2021/11/11 01:38:17;;;;;;;23.3;13.5;;;;;;;0.46;74.87598;95669.14;;;;
2021/11/11 01:39:18;;;;;;;23.3;13.5;;;;;;;0.46;74.87598;95669.14;;;;
2021/11/11 01:40:19;;;;;;;23.3;13.5;;;;;;;0.46;74.87598;95669.14;;;;
2021/11/11 01:41:20;;;;;;;20.05;12.35;;;;;;;0.29;74.96289;95669.2;;;;
2021/11/11 01:42:21;;;;;;;20.05;12.35;;;;;;;0.29;74.96289;95669.2;;;;
2021/11/11 01:43:21;;;;;;;20.05;12.35;;;;;;;0.29;74.96289;95669.2;;;;
2021/11/11 01:44:22;;;;;;;20.05;12.35;;;;;;;0.29;74.96289;95669.2;;;;
2021/11/11 01:45:23;;;;;;;20.05;12.35;;;;;;;0.29;74.96289;95669.2;;;;
2021/11/11 01:46:26;;;;;;;20.05;12.35;;;;;;;0.29;74.96289;95669.2;;;;
2021/11/11 01:47:26;;;;;;;20.05;12.35;;;;;;;0.29;74.96289;95669.2;;;;
2021/11/11 01:48:27;;;;;;;20.05;12.35;;;;;;;0.29;74.96289;95669.2;;;;
2021/11/11 01:49:28;;;;;;;20.05;12.35;;;;;;;0.29;74.96289;95669.2;;;;
2021/11/11 01:50:28;;;;;;;20.05;12.35;;;;;;;0.29;74.96289;95669.2;;;;
2021/11/11 01:51:31;;;;;;;20.05;12.35;;;;;;;0.29;74.96289;95669.2;;;;
2021/11/11 01:52:31;;;;;;;21.8;14.35;;;;;;;0.24;75.15332;95652.03;;;;
2021/11/11 01:53:32;;;;;;;21.8;14.35;;;;;;;0.24;75.15332;95652.03;;;;
2021/11/11 01:54:34;;;;;;;21.8;14.35;;;;;;;0.24;75.15332;95652.03;;;;
2021/11/11 01:55:35;;;;;;;21.8;14.35;;;;;;;0.24;75.15332;95652.03;;;;
2021/11/11 01:56:37;;;;;;;21.8;14.35;;;;;;;0.24;75.15332;95652.03;;;;
2021/11/11 01:57:38;;;;;;;21.8;14.35;;;;;;;0.24;75.15332;95652.03;;;;
2021/11/11 01:58:38;;;;;;;21.8;14.35;;;;;;;0.24;75.15332;95652.03;;;;
2021/11/11 01:59:39;;;;;;;21.8;14.35;;;;;;;0.24;75.15332;95652.03;;;;
2021/11/11 02:00:39;;;;;;;21.8;14.35;;;;;;;0.24;75.15332;95652.03;;;;
2021/11/11 02:01:42;;;;;;;21.8;14.35;;;;;;;0.24;75.15332;95652.03;;;;
2021/11/11 02:02:43;;;;;;;20.6;13.1;;;;;;;0.3;75.12109;95636.78;;;;
2021/11/11 02:03:43;;;;;;;20.6;13.1;;;;;;;0.3;75.12109;95636.78;;;;
2021/11/11 02:04:45;;;;;;;20.6;13.1;;;;;;;0.3;75.12109;95636.78;;;;
2021/11/11 02:05:45;;;;;;;20.6;13.1;;;;;;;0.3;75.12109;95636.78;;;;
2021/11/11 02:06:46;;;;;;;20.6;13.1;;;;;;;0.3;75.12109;95636.78;;;;
2021/11/11 02:07:46;;;;;;;20.6;13.1;;;;;;;0.3;75.12109;95636.78;;;;
2021/11/11 02:08:48;;;;;;;20.6;13.1;;;;;;;0.3;75.12109;95636.78;;;;
2021/11/11 02:09:50;;;;;;;20.6;13.1;;;;;;;0.3;75.12109;95636.78;;;;
2021/11/11 02:10:50;;;;;;;20.6;13.1;;;;;;;0.3;75.12109;95636.78;;;;
2021/11/11 02:11:51;;;;;;;20.6;13.1;;;;;;;0.3;75.12109;95636.78;;;;
2021/11/11 02:12:52;;;;;;;20.6;13.1;;;;;;;0.3;75.12109;95636.78;;;;
2021/11/11 02:13:52;;;;;;;20.2;13.3;;;;;;;0.3;75.05859;95618.61;;;;
2021/11/11 02:14:53;;;;;;;20.2;13.3;;;;;;;0.3;75.05859;95618.61;;;;
2021/11/11 02:15:53;;;;;;;20.2;13.3;;;;;;;0.3;75.05859;95618.61;;;;
2021/11/11 02:16:54;;;;;;;20.2;13.3;;;;;;;0.3;75.05859;95618.61;;;;
2021/11/11 02:17:55;;;;;;;20.2;13.3;;;;;;;0.3;75.05859;95618.61;;;;
2021/11/11 02:18:56;;;;;;;20.2;13.3;;;;;;;0.3;75.05859;95618.61;;;;
2021/11/11 02:19:57;;;;;;;20.2;13.3;;;;;;;0.3;75.05859;95618.61;;;;
2021/11/11 02:21:00;;;;;;;20.2;13.3;;;;;;;0.3;75.05859;95618.61;;;;
2021/11/11 02:22:03;;;;;;;20.2;13.3;;;;;;;0.3;75.05859;95618.61;;;;
2021/11/11 02:23:04;;;;;;;20.2;13.3;;;;;;;0.3;75.05859;95618.61;;;;
2021/11/11 02:24:07;;;;;;;24.55;13.9;;;;;;;0.3;75.12988;95612.47;;;;
2021/11/11 02:25:08;;;;;;;24.55;13.9;;;;;;;0.3;75.12988;95612.47;;;;
2021/11/11 02:26:09;;;;;;;24.55;13.9;;;;;;;0.3;75.12988;95612.47;;;;
2021/11/11 02:27:10;;;;;;;24.55;13.9;;;;;;;0.3;75.12988;95612.47;;;;
2021/11/11 02:28:11;;;;;;;24.55;13.9;;;;;;;0.3;75.12988;95612.47;;;;
2021/11/11 02:29:14;;;;;;;24.55;13.9;;;;;;;0.3;75.12988;95612.47;;;;
2021/11/11 02:30:15;;;;;;;24.55;13.9;;;;;;;0.3;75.12988;95612.47;;;;
2021/11/11 02:31:19;;;;;;;24.55;13.9;;;;;;;0.3;75.12988;95612.47;;;;
2021/11/11 02:32:20;;;;;;;24.55;13.9;;;;;;;0.3;75.12988;95612.47;;;;
2021/11/11 02:33:28;;;;;;;24.55;13.9;;;;;;;0.3;75.12988;95612.47;;;;
2021/11/11 02:34:28;;;;;;;19.5;12.8;;;;;;;0.29;75.17188;95603.23;;;;
2021/11/11 02:35:29;;;;;;;19.5;12.8;;;;;;;0.29;75.17188;95603.23;;;;
2021/11/11 02:36:29;;;;;;;19.5;12.8;;;;;;;0.29;75.17188;95603.23;;;;
2021/11/11 02:37:30;;;;;;;19.5;12.8;;;;;;;0.29;75.17188;95603.23;;;;
2021/11/11 02:38:32;;;;;;;19.5;12.8;;;;;;;0.29;75.17188;95603.23;;;;
2021/11/11 02:39:33;;;;;;;19.5;12.8;;;;;;;0.29;75.17188;95603.23;;;;
2021/11/11 02:40:37;;;;;;;19.5;12.8;;;;;;;0.29;75.17188;95603.23;;;;
2021/11/11 02:41:39;;;;;;;19.5;12.8;;;;;;;0.29;75.17188;95603.23;;;;
2021/11/11 02:42:46;;;;;;;19.5;12.8;;;;;;;0.29;75.17188;95603.23;;;;
2021/11/11 02:43:48;;;;;;;19.5;12.8;;;;;;;0.29;75.17188;95603.23;;;;
2021/11/11 02:44:48;;;;;;;19.5;12.8;;;;;;;0.29;75.17188;95603.23;;;;
2021/11/11 02:45:49;;;;;;;19.5;11.85;;;;;;;0.28;75.14746;95610.05;;;;
2021/11/11 02:46:51;;;;;;;19.5;11.85;;;;;;;0.28;75.14746;95610.05;;;;
2021/11/11 02:47:52;;;;;;;19.5;11.85;;;;;;;0.28;75.14746;95610.05;;;;
2021/11/11 02:48:53;;;;;;;19.5;11.85;;;;;;;0.28;75.14746;95610.05;;;;
2021/11/11 02:49:54;;;;;;;19.5;11.85;;;;;;;0.28;75.14746;95610.05;;;;
2021/11/11 02:50:55;;;;;;;19.5;11.85;;;;;;;0.28;75.14746;95610.05;;;;
2021/11/11 02:51:56;;;;;;;19.5;11.85;;;;;;;0.28;75.14746;95610.05;;;;
2021/11/11 02:52:56;;;;;;;19.5;11.85;;;;;;;0.28;75.14746;95610.05;;;;
2021/11/11 02:53:59;;;;;;;19.5;11.85;;;;;;;0.28;75.14746;95610.05;;;;
2021/11/11 02:54:59;;;;;;;19.5;11.85;;;;;;;0.28;75.14746;95610.05;;;;
2021/11/11 02:56:01;;;;;;;16.5;11.85;;;;;;;0.19;75.17383;95614.53;;;;
2021/11/11 02:57:02;;;;;;;16.5;11.85;;;;;;;0.19;75.17383;95614.53;;;;
2021/11/11 02:58:03;;;;;;;16.5;11.85;;;;;;;0.19;75.17383;95614.53;;;;
2021/11/11 02:59:05;;;;;;;16.5;11.85;;;;;;;0.19;75.17383;95614.53;;;;
2021/11/11 03:00:06;;;;;;;16.5;11.85;;;;;;;0.19;75.17383;95614.53;;;;
2021/11/11 03:01:10;;;;;;;16.5;11.85;;;;;;;0.19;75.17383;95614.53;;;;
2021/11/11 03:02:11;;;;;;;16.5;11.85;;;;;;;0.19;75.17383;95614.53;;;;
2021/11/11 03:03:19;;;;;;;16.5;11.85;;;;;;;0.19;75.17383;95614.53;;;;
2021/11/11 03:04:21;;;;;;;16.5;11.85;;;;;;;0.19;75.17383;95614.53;;;;
2021/11/11 03:05:21;;;;;;;16.5;11.85;;;;;;;0.19;75.17383;95614.53;;;;
2021/11/11 03:06:25;;;;;;;16.5;11.85;;;;;;;0.19;75.17383;95614.53;;;;
2021/11/11 03:07:26;;;;;;;18.35;11.55;;;;;;;0.1;75.2832;95600.5;;;;
2021/11/11 03:08:27;;;;;;;18.35;11.55;;;;;;;0.1;75.2832;95600.5;;;;
2021/11/11 03:09:27;;;;;;;18.35;11.55;;;;;;;0.1;75.2832;95600.5;;;;
2021/11/11 03:10:28;;;;;;;18.35;11.55;;;;;;;0.1;75.2832;95600.5;;;;
2021/11/11 03:11:30;;;;;;;18.35;11.55;;;;;;;0.1;75.2832;95600.5;;;;
2021/11/11 03:12:30;;;;;;;18.35;11.55;;;;;;;0.1;75.2832;95600.5;;;;
2021/11/11 03:13:31;;;;;;;18.35;11.55;;;;;;;0.1;75.2832;95600.5;;;;
2021/11/11 03:14:32;;;;;;;18.35;11.55;;;;;;;0.1;75.2832;95600.5;;;;
2021/11/11 03:15:32;;;;;;;18.35;11.55;;;;;;;0.1;75.2832;95600.5;;;;
2021/11/11 03:16:34;;;;;;;18.35;11.55;;;;;;;0.1;75.2832;95600.5;;;;
2021/11/11 03:17:35;;;;;;;21;12.55;;;;;;;0.05;75.39844;95611.69;;;;
2021/11/11 03:18:37;;;;;;;21;12.55;;;;;;;0.05;75.39844;95611.69;;;;
2021/11/11 03:19:38;;;;;;;21;12.55;;;;;;;0.05;75.39844;95611.69;;;;
2021/11/11 03:20:39;;;;;;;21;12.55;;;;;;;0.05;75.39844;95611.69;;;;
2021/11/11 03:21:41;;;;;;;21;12.55;;;;;;;0.05;75.39844;95611.69;;;;
2021/11/11 03:22:42;;;;;;;21;12.55;;;;;;;0.05;75.39844;95611.69;;;;
2021/11/11 03:23:44;;;;;;;21;12.55;;;;;;;0.05;75.39844;95611.69;;;;
2021/11/11 03:24:44;;;;;;;21;12.55;;;;;;;0.05;75.39844;95611.69;;;;
2021/11/11 03:25:46;;;;;;;21;12.55;;;;;;;0.05;75.39844;95611.69;;;;
2021/11/11 03:26:46;;;;;;;21;12.55;;;;;;;0.05;75.39844;95611.69;;;;
2021/11/11 03:27:48;;;;;;;21;12.55;;;;;;;0.05;75.39844;95611.69;;;;
2021/11/11 03:28:50;;;;;;;24.7;13.35;;;;;;;0.03;75.49023;95627.36;;;;
2021/11/11 03:29:51;;;;;;;24.7;13.35;;;;;;;0.03;75.49023;95627.36;;;;
2021/11/11 03:30:53;;;;;;;24.7;13.35;;;;;;;0.03;75.49023;95627.36;;;;
2021/11/11 03:31:54;;;;;;;24.7;13.35;;;;;;;0.03;75.49023;95627.36;;;;
2021/11/11 03:32:55;;;;;;;24.7;13.35;;;;;;;0.03;75.49023;95627.36;;;;
2021/11/11 03:33:56;;;;;;;24.7;13.35;;;;;;;0.03;75.49023;95627.36;;;;
2021/11/11 03:34:57;;;;;;;24.7;13.35;;;;;;;0.03;75.49023;95627.36;;;;
2021/11/11 03:35:57;;;;;;;24.7;13.35;;;;;;;0.03;75.49023;95627.36;;;;
2021/11/11 03:36:58;;;;;;;24.7;13.35;;;;;;;0.03;75.49023;95627.36;;;;
2021/11/11 03:37:59;;;;;;;24.7;13.35;;;;;;;0.03;75.49023;95627.36;;;;
2021/11/11 03:39:02;;;;;;;19.65;12.1;;;;;;;-0.04;75.49805;95624.13;;;;
2021/11/11 03:40:04;;;;;;;19.65;12.1;;;;;;;-0.04;75.49805;95624.13;;;;
2021/11/11 03:41:09;;;;;;;19.65;12.1;;;;;;;-0.04;75.49805;95624.13;;;;
2021/11/11 03:42:09;;;;;;;19.65;12.1;;;;;;;-0.04;75.49805;95624.13;;;;
2021/11/11 03:43:12;;;;;;;19.65;12.1;;;;;;;-0.04;75.49805;95624.13;;;;
2021/11/11 03:44:15;;;;;;;19.65;12.1;;;;;;;-0.04;75.49805;95624.13;;;;
2021/11/11 03:45:18;;;;;;;19.65;12.1;;;;;;;-0.04;75.49805;95624.13;;;;
2021/11/11 03:46:19;;;;;;;19.65;12.1;;;;;;;-0.04;75.49805;95624.13;;;;
2021/11/11 03:47:19;;;;;;;19.65;12.1;;;;;;;-0.04;75.49805;95624.13;;;;
2021/11/11 03:48:20;;;;;;;19.65;12.1;;;;;;;-0.04;75.49805;95624.13;;;;
2021/11/11 03:49:20;;;;;;;17.7;12.35;;;;;;;-0.11;75.59277;95638.51;;;;
2021/11/11 03:50:22;;;;;;;17.7;12.35;;;;;;;-0.11;75.59277;95638.51;;;;
2021/11/11 03:51:23;;;;;;;17.7;12.35;;;;;;;-0.11;75.59277;95638.51;;;;
2021/11/11 03:52:24;;;;;;;17.7;12.35;;;;;;;-0.11;75.59277;95638.51;;;;
2021/11/11 03:53:24;;;;;;;17.7;12.35;;;;;;;-0.11;75.59277;95638.51;;;;
2021/11/11 03:54:27;;;;;;;17.7;12.35;;;;;;;-0.11;75.59277;95638.51;;;;
2021/11/11 03:55:27;;;;;;;17.7;12.35;;;;;;;-0.11;75.59277;95638.51;;;;
2021/11/11 03:56:28;;;;;;;17.7;12.35;;;;;;;-0.11;75.59277;95638.51;;;;
2021/11/11 03:57:29;;;;;;;17.7;12.35;;;;;;;-0.11;75.59277;95638.51;;;;
2021/11/11 03:58:29;;;;;;;17.7;12.35;;;;;;;-0.11;75.59277;95638.51;;;;
2021/11/11 03:59:30;;;;;;;17.7;12.35;;;;;;;-0.11;75.59277;95638.51;;;;
2021/11/11 04:00:31;;;;;;;23.05;13.5;;;;;;;-0.26;75.74121;95645.95;;;;
2021/11/11 04:01:32;;;;;;;23.05;13.5;;;;;;;-0.26;75.74121;95645.95;;;;
2021/11/11 04:02:32;;;;;;;23.05;13.5;;;;;;;-0.26;75.74121;95645.95;;;;
2021/11/11 04:03:33;;;;;;;23.05;13.5;;;;;;;-0.26;75.74121;95645.95;;;;
2021/11/11 04:04:34;;;;;;;23.05;13.5;;;;;;;-0.26;75.74121;95645.95;;;;
2021/11/11 04:05:34;;;;;;;23.05;13.5;;;;;;;-0.26;75.74121;95645.95;;;;
2021/11/11 04:06:35;;;;;;;23.05;13.5;;;;;;;-0.26;75.74121;95645.95;;;;
2021/11/11 04:07:36;;;;;;;23.05;13.5;;;;;;;-0.26;75.74121;95645.95;;;;
2021/11/11 04:08:36;;;;;;;23.05;13.5;;;;;;;-0.26;75.74121;95645.95;;;;
2021/11/11 04:09:37;;;;;;;23.05;13.5;;;;;;;-0.26;75.74121;95645.95;;;;
2021/11/11 04:10:37;;;;;;;19.1;12.35;;;;;;;-0.29;75.86328;95647.09;;;;
2021/11/11 04:11:38;;;;;;;19.1;12.35;;;;;;;-0.29;75.86328;95647.09;;;;
2021/11/11 04:12:39;;;;;;;19.1;12.35;;;;;;;-0.29;75.86328;95647.09;;;;
2021/11/11 04:13:40;;;;;;;19.1;12.35;;;;;;;-0.29;75.86328;95647.09;;;;
2021/11/11 04:14:41;;;;;;;19.1;12.35;;;;;;;-0.29;75.86328;95647.09;;;;
2021/11/11 04:15:42;;;;;;;19.1;12.35;;;;;;;-0.29;75.86328;95647.09;;;;
2021/11/11 04:16:45;;;;;;;19.1;12.35;;;;;;;-0.29;75.86328;95647.09;;;;
2021/11/11 04:17:46;;;;;;;19.1;12.35;;;;;;;-0.29;75.86328;95647.09;;;;
2021/11/11 04:18:46;;;;;;;19.1;12.35;;;;;;;-0.29;75.86328;95647.09;;;;
2021/11/11 04:19:47;;;;;;;19.1;12.35;;;;;;;-0.29;75.86328;95647.09;;;;
2021/11/11 04:20:48;;;;;;;19.1;12.35;;;;;;;-0.29;75.86328;95647.09;;;;
2021/11/11 04:21:48;;;;;;;16.7;11.5;;;;;;;-0.27;75.80078;95657.14;;;;
2021/11/11 04:22:49;;;;;;;16.7;11.5;;;;;;;-0.27;75.80078;95657.14;;;;
2021/11/11 04:23:50;;;;;;;16.7;11.5;;;;;;;-0.27;75.80078;95657.14;;;;
2021/11/11 04:24:53;;;;;;;16.7;11.5;;;;;;;-0.27;75.80078;95657.14;;;;
2021/11/11 04:25:59;;;;;;;16.7;11.5;;;;;;;-0.27;75.80078;95657.14;;;;
2021/11/11 04:27:03;;;;;;;16.7;11.5;;;;;;;-0.27;75.80078;95657.14;;;;
2021/11/11 04:28:05;;;;;;;16.7;11.5;;;;;;;-0.27;75.80078;95657.14;;;;
2021/11/11 04:29:10;;;;;;;16.7;11.5;;;;;;;-0.27;75.80078;95657.14;;;;
2021/11/11 04:30:16;;;;;;;16.7;11.5;;;;;;;-0.27;75.80078;95657.14;;;;
2021/11/11 04:31:22;;;;;;;16.7;11.5;;;;;;;-0.27;75.80078;95657.14;;;;
2021/11/11 04:32:23;;;;;;;19.65;12.2;;;;;;;-0.25;75.87012;95649.77;;;;
2021/11/11 04:33:24;;;;;;;19.65;12.2;;;;;;;-0.25;75.87012;95649.77;;;;
2021/11/11 04:34:25;;;;;;;19.65;12.2;;;;;;;-0.25;75.87012;95649.77;;;;
2021/11/11 04:35:28;;;;;;;19.65;12.2;;;;;;;-0.25;75.87012;95649.77;;;;
2021/11/11 04:36:52;;;;;;;19.65;12.2;;;;;;;-0.25;75.87012;95649.77;;;;
2021/11/11 04:38:00;;;;;;;19.65;12.2;;;;;;;-0.25;75.87012;95649.77;;;;
2021/11/11 04:39:13;;;;;;;19.65;12.2;;;;;;;-0.25;75.87012;95649.77;;;;
2021/11/11 04:46:46;;;;;;;19.9;12.65;;;;;;;-0.1;75.97852;95653.53;;;;
2021/11/11 04:47:58;;;;;;;19.9;12.65;;;;;;;-0.1;75.97852;95653.53;;;;
2021/11/11 04:59:40;;;;;;;18.85;11.75;;;;;;;-0.09;75.99023;95668.9;;;;
2021/11/11 05:01:19;;;;;;;18.85;11.75;;;;;;;-0.09;75.99023;95668.9;;;;
2021/11/11 05:02:39;;;;;;;18.85;11.75;;;;;;;-0.09;75.99023;95668.9;;;;
2021/11/11 05:03:43;;;;;;;18.85;11.75;;;;;;;-0.09;75.99023;95668.9;;;;
2021/11/11 05:04:43;;;;;;;15.15;10.5;;;;;;;-0.14;76.10742;95666.78;;;;
2021/11/11 05:05:44;;;;;;;15.15;10.5;;;;;;;-0.14;76.10742;95666.78;;;;
2021/11/11 05:06:45;;;;;;;15.15;10.5;;;;;;;-0.14;76.10742;95666.78;;;;
2021/11/11 05:07:46;;;;;;;15.15;10.5;;;;;;;-0.14;76.10742;95666.78;;;;
2021/11/11 05:08:47;;;;;;;15.15;10.5;;;;;;;-0.14;76.10742;95666.78;;;;
2021/11/11 05:09:47;;;;;;;15.15;10.5;;;;;;;-0.14;76.10742;95666.78;;;;
2021/11/11 05:10:50;;;;;;;15.15;10.5;;;;;;;-0.14;76.10742;95666.78;;;;
2021/11/11 05:11:51;;;;;;;15.15;10.5;;;;;;;-0.14;76.10742;95666.78;;;;
2021/11/11 05:12:52;;;;;;;15.15;10.5;;;;;;;-0.14;76.10742;95666.78;;;;
2021/11/11 05:13:53;;;;;;;15.15;10.5;;;;;;;-0.14;76.10742;95666.78;;;;
2021/11/11 05:14:54;;;;;;;17.95;11.05;;;;;;;-0.12;76.16309;95665.22;;;;
2021/11/11 05:15:54;;;;;;;17.95;11.05;;;;;;;-0.12;76.16309;95665.22;;;;
2021/11/11 05:16:55;;;;;;;17.95;11.05;;;;;;;-0.12;76.16309;95665.22;;;;
2021/11/11 05:17:56;;;;;;;17.95;11.05;;;;;;;-0.12;76.16309;95665.22;;;;
2021/11/11 05:18:56;;;;;;;17.95;11.05;;;;;;;-0.12;76.16309;95665.22;;;;
2021/11/11 05:19:57;;;;;;;17.95;11.05;;;;;;;-0.12;76.16309;95665.22;;;;
2021/11/11 05:20:58;;;;;;;17.95;11.05;;;;;;;-0.12;76.16309;95665.22;;;;
2021/11/11 05:21:58;;;;;;;17.95;11.05;;;;;;;-0.12;76.16309;95665.22;;;;
2021/11/11 05:22:59;;;;;;;17.95;11.05;;;;;;;-0.12;76.16309;95665.22;;;;
2021/11/11 05:24:00;;;;;;;17.95;11.05;;;;;;;-0.12;76.16309;95665.22;;;;
2021/11/11 05:25:00;;;;;;;17.95;11.05;;;;;;;-0.12;76.16309;95665.22;;;;
2021/11/11 05:26:01;;;;;;;16.95;10.1;;;;;;;-0.12;76.05859;95674.51;;;;
2021/11/11 05:27:04;;;;;;;16.95;10.1;;;;;;;-0.12;76.05859;95674.51;;;;
2021/11/11 05:28:05;;;;;;;16.95;10.1;;;;;;;-0.12;76.05859;95674.51;;;;
2021/11/11 05:29:05;;;;;;;16.95;10.1;;;;;;;-0.12;76.05859;95674.51;;;;
2021/11/11 05:30:07;;;;;;;16.95;10.1;;;;;;;-0.12;76.05859;95674.51;;;;
2021/11/11 05:31:09;;;;;;;16.95;10.1;;;;;;;-0.12;76.05859;95674.51;;;;
2021/11/11 05:32:10;;;;;;;16.95;10.1;;;;;;;-0.12;76.05859;95674.51;;;;
2021/11/11 05:33:10;;;;;;;16.95;10.1;;;;;;;-0.12;76.05859;95674.51;;;;
2021/11/11 05:34:11;;;;;;;16.95;10.1;;;;;;;-0.12;76.05859;95674.51;;;;
2021/11/11 05:35:12;;;;;;;16.95;10.1;;;;;;;-0.12;76.05859;95674.51;;;;
2021/11/11 05:36:14;;;;;;;19.75;12.6;;;;;;;-0.13;76.17188;95687.03;;;;
2021/11/11 05:37:15;;;;;;;19.75;12.6;;;;;;;-0.13;76.17188;95687.03;;;;
2021/11/11 05:38:16;;;;;;;19.75;12.6;;;;;;;-0.13;76.17188;95687.03;;;;
2021/11/11 05:39:16;;;;;;;19.75;12.6;;;;;;;-0.13;76.17188;95687.03;;;;
2021/11/11 05:40:17;;;;;;;19.75;12.6;;;;;;;-0.13;76.17188;95687.03;;;;
2021/11/11 05:41:20;;;;;;;19.75;12.6;;;;;;;-0.13;76.17188;95687.03;;;;
2021/11/11 05:42:21;;;;;;;19.75;12.6;;;;;;;-0.13;76.17188;95687.03;;;;
2021/11/11 05:43:21;;;;;;;19.75;12.6;;;;;;;-0.13;76.17188;95687.03;;;;
2021/11/11 05:44:22;;;;;;;19.75;12.6;;;;;;;-0.13;76.17188;95687.03;;;;
2021/11/11 05:45:23;;;;;;;19.75;12.6;;;;;;;-0.13;76.17188;95687.03;;;;
2021/11/11 05:46:24;;;;;;;19.75;12.6;;;;;;;-0.13;76.17188;95687.03;;;;
2021/11/11 05:47:24;;;;;;;16.95;10.6;;;;;;;-0.11;76.1748;95694.76;;;;
2021/11/11 05:48:25;;;;;;;16.95;10.6;;;;;;;-0.11;76.1748;95694.76;;;;
2021/11/11 05:49:25;;;;;;;16.95;10.6;;;;;;;-0.11;76.1748;95694.76;;;;
2021/11/11 05:50:26;;;;;;;16.95;10.6;;;;;;;-0.11;76.1748;95694.76;;;;
2021/11/11 05:51:27;;;;;;;16.95;10.6;;;;;;;-0.11;76.1748;95694.76;;;;
2021/11/11 05:52:27;;;;;;;16.95;10.6;;;;;;;-0.11;76.1748;95694.76;;;;
2021/11/11 05:53:28;;;;;;;16.95;10.6;;;;;;;-0.11;76.1748;95694.76;;;;
2021/11/11 05:54:28;;;;;;;16.95;10.6;;;;;;;-0.11;76.1748;95694.76;;;;
2021/11/11 05:55:29;;;;;;;16.95;10.6;;;;;;;-0.11;76.1748;95694.76;;;;
2021/11/11 05:56:30;;;;;;;16.95;10.6;;;;;;;-0.11;76.1748;95694.76;;;;
2021/11/11 05:57:30;;;;;;;15.2;9.299999;;;;;;;-0.15;76.18945;95698.72;;;;
2021/11/11 05:58:31;;;;;;;15.2;9.299999;;;;;;;-0.15;76.18945;95698.72;;;;
2021/11/11 05:59:32;;;;;;;15.2;9.299999;;;;;;;-0.15;76.18945;95698.72;;;;
2021/11/11 06:00:33;;;;;;;15.2;9.299999;;;;;;;-0.15;76.18945;95698.72;;;;
2021/11/11 06:01:33;;;;;;;15.2;9.299999;;;;;;;-0.15;76.18945;95698.72;;;;
2021/11/11 06:02:34;;;;;;;15.2;9.299999;;;;;;;-0.15;76.18945;95698.72;;;;
2021/11/11 06:03:35;;;;;;;15.2;9.299999;;;;;;;-0.15;76.18945;95698.72;;;;
2021/11/11 06:04:36;;;;;;;15.2;9.299999;;;;;;;-0.15;76.18945;95698.72;;;;